Eiwa Maru — JG5742 — position and weather

sailwx.info

Track history (hours):
 
Tides and Currents Weather Stations Pressure Air Temp Water Temp Dewpoint Dewpoint Depression Visibility Wind Speed Wind Dir Waves Ship Positions

Eiwa Maru

Last reported at 2016-Dec-05 17:33 UTC. Time now 2016-Dec-05 18:29 UTC.
Position N 35°29' E 139°48'.

Length 80 m; draft 5.5 m.

Type: Ship (hazmat cat A). MMSI: 431101045.

Date/timePositionNaut miles runAvg speedWind from/ knotsBaromVisibWave heightAir tempDewpointWater temp
2016-Dec-05 17:33N 35°29' E 139°48'0 0.0
2016-Dec-05 16:33N 35°29' E 139°48'0 0.0
2016-Dec-05 15:33N 35°29' E 139°48'0 0.0
2016-Dec-05 14:33N 35°29' E 139°48'0 0.0
2016-Dec-05 13:33N 35°29' E 139°48'0 0.0
2016-Dec-05 12:33N 35°29' E 139°48'0 0.0
2016-Dec-05 11:33N 35°29' E 139°48'0 0.0
2016-Dec-05 10:33N 35°29' E 139°48'0 0.0
2016-Dec-05 08:33N 35°29' E 139°48'7 7.5
2016-Dec-05 07:33N 35°22' E 139°45'1512.1
2016-Dec-05 06:17N 35°06' E 139°45'24311.2
2016-Dec-04 08:33N 34°05' E 134°60'2512.3
2016-Dec-04 06:33N 34°28' E 135°12'1312.6
2016-Dec-04 05:33N 34°33' E 135°25'0 0.0
2016-Dec-03 23:29N 34°33' E 135°26'0 0.0
2016-Dec-03 22:33N 34°33' E 135°26'3 3.2
2016-Dec-03 21:33N 34°33' E 135°22'2 2.0
2016-Dec-03 20:32N 34°32' E 135°20'0 0.0
2016-Dec-03 19:33N 34°32' E 135°20'0 0.0
2016-Dec-03 18:33N 34°32' E 135°20'0 0.0
2016-Dec-03 17:33N 34°32' E 135°20'0 0.0
2016-Dec-03 16:33N 34°32' E 135°20'0 0.0
2016-Dec-03 15:33N 34°32' E 135°20'0 0.0
2016-Dec-03 14:33N 34°32' E 135°20'5 5.1
2016-Dec-03 13:33N 34°29' E 135°15'1313.1
2016-Dec-03 12:33N 34°20' E 135°02'1312.5
2016-Dec-03 11:33N 34°08' E 134°60'24410.2
2016-Dec-02 11:32N 35°13' E 139°46'1212.1
2016-Dec-02 10:33N 35°25' E 139°43'7 6.7
2016-Dec-02 09:33N 35°31' E 139°46'0 0.0
2016-Dec-02 08:34N 35°31' E 139°46'0 0.0
2016-Dec-02 07:34N 35°31' E 139°46'0 0.0
2016-Dec-02 06:34N 35°31' E 139°46'0 0.0
2016-Dec-02 05:34N 35°31' E 139°46'0 0.2
2016-Dec-02 04:34N 35°31' E 139°46'1212.2
2016-Dec-02 03:32N 35°31' E 140°02'1 0.5
2016-Dec-02 02:26N 35°31' E 140°02'0 0.1
2016-Dec-02 01:26N 35°31' E 140°02'0 0.0
2016-Dec-02 00:30N 35°31' E 140°02'2 1.8
2016-Dec-01 23:30N 35°32' E 140°01'0 0.1
2016-Dec-01 22:33N 35°32' E 140°01'0 0.0
2016-Dec-01 21:32N 35°32' E 140°01'0 0.0
2016-Dec-01 20:33N 35°32' E 140°01'0 0.0
2016-Dec-01 19:28N 35°32' E 140°01'0 0.0
2016-Dec-01 18:30N 35°32' E 140°01'0 0.0
2016-Dec-01 17:18N 35°32' E 140°01'0 0.1
2016-Dec-01 16:24N 35°32' E 140°01'0 0.0
2016-Dec-01 15:32N 35°32' E 140°01'0 0.0
2016-Dec-01 14:24N 35°32' E 140°01'0 0.0
2016-Dec-01 13:33N 35°32' E 140°01'0 0.0
2016-Dec-01 06:21N 35°32' E 140°01'0 0.0
2016-Dec-01 05:22N 35°32' E 140°01'0 0.1
2016-Dec-01 04:17N 35°32' E 140°01'0 0.1
2016-Dec-01 03:13N 35°32' E 140°01'0 0.0
2016-Dec-01 02:28N 35°32' E 140°01'0 0.0
2016-Dec-01 01:31N 35°32' E 140°01'0 0.0
2016-Dec-01 00:32N 35°32' E 140°01'2 0.1
2016-Nov-29 23:29N 35°34' E 140°02'2 1.3
2016-Nov-29 22:18N 35°32' E 140°01'0 0.0
2016-Nov-29 19:18N 35°32' E 140°01'0 0.0
2016-Nov-29 18:31N 35°32' E 140°01'0 0.0
2016-Nov-29 16:28N 35°32' E 140°01'0 0.0
2016-Nov-29 15:33N 35°32' E 140°01'0 0.0
2016-Nov-29 14:33N 35°32' E 140°01'2 1.8
2016-Nov-29 13:28N 35°31' E 140°02'0 0.0
2016-Nov-29 12:33N 35°31' E 140°02'0 0.0
2016-Nov-29 11:29N 35°31' E 140°02'0 0.0
2016-Nov-29 10:33N 35°31' E 140°02'1 0.4
2016-Nov-29 08:17N 35°31' E 140°01'0 0.0
2016-Nov-29 07:33N 35°31' E 140°01'0 0.0
2016-Nov-29 06:24N 35°31' E 140°01'0 0.0
2016-Nov-29 05:31N 35°31' E 140°01'0 0.0
2016-Nov-29 04:33N 35°31' E 140°01'0 0.0
2016-Nov-29 03:25N 35°31' E 140°01'0 0.0
2016-Nov-29 02:30N 35°31' E 140°01'0 0.0
2016-Nov-29 01:32N 35°31' E 140°01'0 0.0
2016-Nov-28 23:27N 35°31' E 140°01'0 0.0
2016-Nov-28 22:29N 35°31' E 140°01'0 0.0
2016-Nov-28 21:31N 35°31' E 140°01'0 0.0
2016-Nov-28 20:32N 35°31' E 140°01'0 0.0
2016-Nov-28 19:33N 35°31' E 140°01'0 0.0
2016-Nov-28 18:31N 35°31' E 140°01'0 0.0
2016-Nov-28 17:28N 35°31' E 140°01'0 0.0
2016-Nov-28 16:24N 35°31' E 140°01'0 0.0
2016-Nov-28 15:31N 35°31' E 140°01'0 0.0
2016-Nov-28 14:29N 35°31' E 140°01'0 0.0
2016-Nov-28 13:28N 35°31' E 140°01'0 0.0
2016-Nov-28 12:29N 35°31' E 140°01'6 2.2
2016-Nov-28 09:32N 35°31' E 139°53'6 5.9
2016-Nov-28 08:33N 35°31' E 139°46'0 0.0
2016-Nov-28 07:33N 35°31' E 139°46'0 0.0
2016-Nov-28 06:33N 35°31' E 139°46'0 0.0
2016-Nov-28 05:33N 35°31' E 139°46'0 0.0
2016-Nov-28 04:33N 35°31' E 139°46'0 0.0
2016-Nov-28 03:33N 35°31' E 139°46'0 0.0
2016-Nov-28 02:33N 35°31' E 139°46'0 0.0
2016-Nov-28 01:33N 35°31' E 139°46'0 0.0
2016-Nov-28 00:33N 35°31' E 139°46'0 0.0
2016-Nov-27 23:33N 35°31' E 139°46'0 0.0
2016-Nov-27 22:33N 35°31' E 139°46'3 3.0
2016-Nov-27 21:33N 35°30' E 139°50'0 0.1
2016-Nov-27 20:33N 35°30' E 139°50'0 0.0
2016-Nov-27 19:33N 35°30' E 139°50'0 0.0
2016-Nov-27 18:33N 35°30' E 139°50'0 0.0
2016-Nov-27 17:33N 35°30' E 139°50'0 0.1
2016-Nov-27 16:33N 35°30' E 139°50'0 0.0
2016-Nov-27 15:33N 35°30' E 139°50'0 0.0
2016-Nov-27 14:33N 35°30' E 139°50'0 0.0
2016-Nov-27 13:33N 35°30' E 139°50'0 0.0
2016-Nov-27 12:33N 35°30' E 139°50'0 0.0
2016-Nov-27 11:33N 35°30' E 139°50'0 0.0
2016-Nov-27 10:33N 35°30' E 139°50'0 0.0
2016-Nov-27 09:33N 35°30' E 139°50'0 0.0
2016-Nov-27 08:33N 35°30' E 139°50'0 0.0
2016-Nov-27 07:33N 35°30' E 139°50'0 0.0
2016-Nov-27 06:33N 35°30' E 139°50'0 0.0
2016-Nov-27 05:33N 35°30' E 139°50'0 0.0
2016-Nov-27 04:33N 35°30' E 139°50'0 0.0
2016-Nov-27 03:33N 35°30' E 139°50'10 8.9
2016-Nov-27 02:27N 35°31' E 140°02'0 0.0
2016-Nov-26 21:31N 35°31' E 140°02'3 3.0
2016-Nov-26 20:33N 35°31' E 139°59'0 0.0
2016-Nov-26 19:33N 35°31' E 139°59'0 0.0
2016-Nov-26 18:33N 35°31' E 139°59'0 0.0
2016-Nov-26 17:33N 35°31' E 139°59'0 0.0
2016-Nov-26 16:33N 35°31' E 139°59'0 0.0
2016-Nov-26 15:33N 35°31' E 139°59'0 0.0
2016-Nov-26 14:33N 35°31' E 139°59'0 0.0
2016-Nov-26 13:33N 35°31' E 139°59'0 0.0
2016-Nov-26 12:33N 35°31' E 139°59'0 0.0
2016-Nov-26 11:32N 35°31' E 139°59'0 0.0
2016-Nov-26 10:32N 35°31' E 139°59'0 0.0
2016-Nov-26 09:33N 35°31' E 139°59'0 0.1
2016-Nov-26 08:33N 35°31' E 139°59'0 0.0
2016-Nov-26 07:33N 35°31' E 139°59'0 0.0
2016-Nov-26 06:33N 35°31' E 139°59'0 0.0
2016-Nov-26 05:33N 35°31' E 139°59'0 0.0
2016-Nov-26 04:33N 35°31' E 139°59'0 0.1
2016-Nov-26 03:33N 35°31' E 139°59'1110.9
2016-Nov-26 02:34N 35°32' E 139°46'0 0.1
2016-Nov-26 01:33N 35°32' E 139°46'0 0.0
2016-Nov-26 00:33N 35°32' E 139°46'0 0.0
2016-Nov-25 23:33N 35°32' E 139°46'0 0.0
2016-Nov-25 22:33N 35°32' E 139°46'1 1.2
2016-Nov-25 21:33N 35°31' E 139°46'2 2.0
2016-Nov-25 20:33N 35°29' E 139°48'0 0.0
2016-Nov-25 19:33N 35°29' E 139°48'0 0.0
2016-Nov-25 18:33N 35°29' E 139°48'0 0.0
2016-Nov-25 17:33N 35°29' E 139°48'  
Track history (hours):
 
Tides and Currents Weather Stations Pressure Air Temp Water Temp Dewpoint Dewpoint Depression Visibility Wind Speed Wind Dir Waves Ship Positions

Eiwa Maru

Last reported at 2016-Dec-05 17:33 UTC. Time now 2016-Dec-05 18:29 UTC.
Position N 35°29' E 139°48'.

Length 80 m; draft 5.5 m.

Type: Ship (hazmat cat A). MMSI: 431101045.

Date/timePositionNaut miles runAvg speedWind from/ knotsBaromVisibWave heightAir tempDewpointWater temp
2016-Dec-05 17:33N 35°29' E 139°48'0 0.0
2016-Dec-05 16:33N 35°29' E 139°48'0 0.0
2016-Dec-05 15:33N 35°29' E 139°48'0 0.0
2016-Dec-05 14:33N 35°29' E 139°48'0 0.0
2016-Dec-05 13:33N 35°29' E 139°48'0 0.0
2016-Dec-05 12:33N 35°29' E 139°48'0 0.0
2016-Dec-05 11:33N 35°29' E 139°48'0 0.0
2016-Dec-05 10:33N 35°29' E 139°48'0 0.0
2016-Dec-05 08:33N 35°29' E 139°48'7 7.5
2016-Dec-05 07:33N 35°22' E 139°45'1512.1
2016-Dec-05 06:17N 35°06' E 139°45'24311.2
2016-Dec-04 08:33N 34°05' E 134°60'2512.3
2016-Dec-04 06:33N 34°28' E 135°12'1312.6
2016-Dec-04 05:33N 34°33' E 135°25'0 0.0
2016-Dec-03 23:29N 34°33' E 135°26'0 0.0
2016-Dec-03 22:33N 34°33' E 135°26'3 3.2
2016-Dec-03 21:33N 34°33' E 135°22'2 2.0
2016-Dec-03 20:32N 34°32' E 135°20'0 0.0
2016-Dec-03 19:33N 34°32' E 135°20'0 0.0
2016-Dec-03 18:33N 34°32' E 135°20'0 0.0
2016-Dec-03 17:33N 34°32' E 135°20'0 0.0
2016-Dec-03 16:33N 34°32' E 135°20'0 0.0
2016-Dec-03 15:33N 34°32' E 135°20'0 0.0
2016-Dec-03 14:33N 34°32' E 135°20'5 5.1
2016-Dec-03 13:33N 34°29' E 135°15'1313.1
2016-Dec-03 12:33N 34°20' E 135°02'1312.5
2016-Dec-03 11:33N 34°08' E 134°60'24410.2
2016-Dec-02 11:32N 35°13' E 139°46'1212.1
2016-Dec-02 10:33N 35°25' E 139°43'7 6.7
2016-Dec-02 09:33N 35°31' E 139°46'0 0.0
2016-Dec-02 08:34N 35°31' E 139°46'0 0.0
2016-Dec-02 07:34N 35°31' E 139°46'0 0.0
2016-Dec-02 06:34N 35°31' E 139°46'0 0.0
2016-Dec-02 05:34N 35°31' E 139°46'0 0.2
2016-Dec-02 04:34N 35°31' E 139°46'1212.2
2016-Dec-02 03:32N 35°31' E 140°02'1 0.5
2016-Dec-02 02:26N 35°31' E 140°02'0 0.1
2016-Dec-02 01:26N 35°31' E 140°02'0 0.0
2016-Dec-02 00:30N 35°31' E 140°02'2 1.8
2016-Dec-01 23:30N 35°32' E 140°01'0 0.1
2016-Dec-01 22:33N 35°32' E 140°01'0 0.0
2016-Dec-01 21:32N 35°32' E 140°01'0 0.0
2016-Dec-01 20:33N 35°32' E 140°01'0 0.0
2016-Dec-01 19:28N 35°32' E 140°01'0 0.0
2016-Dec-01 18:30N 35°32' E 140°01'0 0.0
2016-Dec-01 17:18N 35°32' E 140°01'0 0.1
2016-Dec-01 16:24N 35°32' E 140°01'0 0.0
2016-Dec-01 15:32N 35°32' E 140°01'0 0.0
2016-Dec-01 14:24N 35°32' E 140°01'0 0.0
2016-Dec-01 13:33N 35°32' E 140°01'0 0.0
2016-Dec-01 06:21N 35°32' E 140°01'0 0.0
2016-Dec-01 05:22N 35°32' E 140°01'0 0.1
2016-Dec-01 04:17N 35°32' E 140°01'0 0.1
2016-Dec-01 03:13N 35°32' E 140°01'0 0.0
2016-Dec-01 02:28N 35°32' E 140°01'0 0.0
2016-Dec-01 01:31N 35°32' E 140°01'0 0.0
2016-Dec-01 00:32N 35°32' E 140°01'2 0.1
2016-Nov-29 23:29N 35°34' E 140°02'2 1.3
2016-Nov-29 22:18N 35°32' E 140°01'0 0.0
2016-Nov-29 19:18N 35°32' E 140°01'0 0.0
2016-Nov-29 18:31N 35°32' E 140°01'0 0.0
2016-Nov-29 16:28N 35°32' E 140°01'0 0.0
2016-Nov-29 15:33N 35°32' E 140°01'0 0.0
2016-Nov-29 14:33N 35°32' E 140°01'2 1.8
2016-Nov-29 13:28N 35°31' E 140°02'0 0.0
2016-Nov-29 12:33N 35°31' E 140°02'0 0.0
2016-Nov-29 11:29N 35°31' E 140°02'0 0.0
2016-Nov-29 10:33N 35°31' E 140°02'1 0.4
2016-Nov-29 08:17N 35°31' E 140°01'0 0.0
2016-Nov-29 07:33N 35°31' E 140°01'0 0.0
2016-Nov-29 06:24N 35°31' E 140°01'0 0.0
2016-Nov-29 05:31N 35°31' E 140°01'0 0.0
2016-Nov-29 04:33N 35°31' E 140°01'0 0.0
2016-Nov-29 03:25N 35°31' E 140°01'0 0.0
2016-Nov-29 02:30N 35°31' E 140°01'0 0.0
2016-Nov-29 01:32N 35°31' E 140°01'0 0.0
2016-Nov-28 23:27N 35°31' E 140°01'0 0.0
2016-Nov-28 22:29N 35°31' E 140°01'0 0.0
2016-Nov-28 21:31N 35°31' E 140°01'0 0.0
2016-Nov-28 20:32N 35°31' E 140°01'0 0.0
2016-Nov-28 19:33N 35°31' E 140°01'0 0.0
2016-Nov-28 18:31N 35°31' E 140°01'0 0.0
2016-Nov-28 17:28N 35°31' E 140°01'0 0.0
2016-Nov-28 16:24N 35°31' E 140°01'0 0.0
2016-Nov-28 15:31N 35°31' E 140°01'0 0.0
2016-Nov-28 14:29N 35°31' E 140°01'0 0.0
2016-Nov-28 13:28N 35°31' E 140°01'0 0.0
2016-Nov-28 12:29N 35°31' E 140°01'6 2.2
2016-Nov-28 09:32N 35°31' E 139°53'6 5.9
2016-Nov-28 08:33N 35°31' E 139°46'0 0.0
2016-Nov-28 07:33N 35°31' E 139°46'0 0.0
2016-Nov-28 06:33N 35°31' E 139°46'0 0.0
2016-Nov-28 05:33N 35°31' E 139°46'0 0.0
2016-Nov-28 04:33N 35°31' E 139°46'0 0.0
2016-Nov-28 03:33N 35°31' E 139°46'0 0.0
2016-Nov-28 02:33N 35°31' E 139°46'0 0.0
2016-Nov-28 01:33N 35°31' E 139°46'0 0.0
2016-Nov-28 00:33N 35°31' E 139°46'0 0.0
2016-Nov-27 23:33N 35°31' E 139°46'0 0.0
2016-Nov-27 22:33N 35°31' E 139°46'3 3.0
2016-Nov-27 21:33N 35°30' E 139°50'0 0.1
2016-Nov-27 20:33N 35°30' E 139°50'0 0.0
2016-Nov-27 19:33N 35°30' E 139°50'0 0.0
2016-Nov-27 18:33N 35°30' E 139°50'0 0.0
2016-Nov-27 17:33N 35°30' E 139°50'0 0.1
2016-Nov-27 16:33N 35°30' E 139°50'0 0.0
2016-Nov-27 15:33N 35°30' E 139°50'0 0.0
2016-Nov-27 14:33N 35°30' E 139°50'0 0.0
2016-Nov-27 13:33N 35°30' E 139°50'0 0.0
2016-Nov-27 12:33N 35°30' E 139°50'0 0.0
2016-Nov-27 11:33N 35°30' E 139°50'0 0.0
2016-Nov-27 10:33N 35°30' E 139°50'0 0.0
2016-Nov-27 09:33N 35°30' E 139°50'0 0.0
2016-Nov-27 08:33N 35°30' E 139°50'0 0.0
2016-Nov-27 07:33N 35°30' E 139°50'0 0.0
2016-Nov-27 06:33N 35°30' E 139°50'0 0.0
2016-Nov-27 05:33N 35°30' E 139°50'0 0.0
2016-Nov-27 04:33N 35°30' E 139°50'0 0.0
2016-Nov-27 03:33N 35°30' E 139°50'10 8.9
2016-Nov-27 02:27N 35°31' E 140°02'0 0.0
2016-Nov-26 21:31N 35°31' E 140°02'3 3.0
2016-Nov-26 20:33N 35°31' E 139°59'0 0.0
2016-Nov-26 19:33N 35°31' E 139°59'0 0.0
2016-Nov-26 18:33N 35°31' E 139°59'0 0.0
2016-Nov-26 17:33N 35°31' E 139°59'0 0.0
2016-Nov-26 16:33N 35°31' E 139°59'0 0.0
2016-Nov-26 15:33N 35°31' E 139°59'0 0.0
2016-Nov-26 14:33N 35°31' E 139°59'0 0.0
2016-Nov-26 13:33N 35°31' E 139°59'0 0.0
2016-Nov-26 12:33N 35°31' E 139°59'0 0.0
2016-Nov-26 11:32N 35°31' E 139°59'0 0.0
2016-Nov-26 10:32N 35°31' E 139°59'0 0.0
2016-Nov-26 09:33N 35°31' E 139°59'0 0.1
2016-Nov-26 08:33N 35°31' E 139°59'0 0.0
2016-Nov-26 07:33N 35°31' E 139°59'0 0.0
2016-Nov-26 06:33N 35°31' E 139°59'0 0.0
2016-Nov-26 05:33N 35°31' E 139°59'0 0.0
2016-Nov-26 04:33N 35°31' E 139°59'0 0.1
2016-Nov-26 03:33N 35°31' E 139°59'1110.9
2016-Nov-26 02:34N 35°32' E 139°46'0 0.1
2016-Nov-26 01:33N 35°32' E 139°46'0 0.0
2016-Nov-26 00:33N 35°32' E 139°46'0 0.0
2016-Nov-25 23:33N 35°32' E 139°46'0 0.0
2016-Nov-25 22:33N 35°32' E 139°46'1 1.2
2016-Nov-25 21:33N 35°31' E 139°46'2 2.0
2016-Nov-25 20:33N 35°29' E 139°48'0 0.0
2016-Nov-25 19:33N 35°29' E 139°48'0 0.0
2016-Nov-25 18:33N 35°29' E 139°48'0 0.0
2016-Nov-25 17:33N 35°29' E 139°48'  

Dump ship's entire track history